createdAt,value
2023-03-03T00:01:10.879Z,2.62
2023-03-03T00:06:14.608Z,2.88
2023-03-03T00:11:16.418Z,3.06
2023-03-03T00:16:31.292Z,3.04
2023-03-03T00:21:44.961Z,2.91
2023-03-03T00:26:51.372Z,2.73
2023-03-03T00:31:52.959Z,2.60
2023-03-03T00:36:57.302Z,2.50
2023-03-03T00:41:59.741Z,2.33
2023-03-03T00:47:30.696Z,2.05
2023-03-03T00:52:38.727Z,1.98
2023-03-03T00:57:40.246Z,1.99
2023-03-03T01:02:44.960Z,2.02
2023-03-03T01:07:46.654Z,1.92
2023-03-03T01:12:49.042Z,1.93
2023-03-03T01:17:51.093Z,1.82
2023-03-03T01:22:52.634Z,1.70
2023-03-03T01:27:54.582Z,1.74
2023-03-03T01:32:56.216Z,1.86
2023-03-03T01:37:59.158Z,1.97
2023-03-03T01:43:01.329Z,1.89
2023-03-03T01:48:09.770Z,1.92
2023-03-03T01:53:38.954Z,1.86
2023-03-03T01:58:46.693Z,1.72
2023-03-03T02:03:48.791Z,1.59
2023-03-03T02:08:53.667Z,1.70
2023-03-03T02:13:55.383Z,1.56
2023-03-03T02:18:58.275Z,1.57
2023-03-03T02:24:06.871Z,1.43
2023-03-03T02:29:10.524Z,1.34
2023-03-03T02:34:15.377Z,1.32
2023-03-03T02:39:23.229Z,1.41
2023-03-03T02:44:28.362Z,1.38
2023-03-03T02:49:32.622Z,1.42
2023-03-03T02:54:34.398Z,1.26
2023-03-03T02:59:37.831Z,1.30
2023-03-03T03:04:44.836Z,1.22
2023-03-03T03:09:50.827Z,1.13
2023-03-03T03:14:52.737Z,1.07
2023-03-03T03:19:54.927Z,0.94
2023-03-03T03:24:57.365Z,0.86
2023-03-03T03:29:59.458Z,0.72
2023-03-03T03:35:02.436Z,0.65
2023-03-03T03:40:05.946Z,0.59
2023-03-03T03:45:08.557Z,0.46
2023-03-03T03:50:12.590Z,0.52
2023-03-03T03:55:14.715Z,0.42
2023-03-03T04:00:17.826Z,0.31
2023-03-03T04:05:26.177Z,0.37
2023-03-03T04:10:29.579Z,0.40
2023-03-03T04:15:32.464Z,0.29
2023-03-03T04:20:35.595Z,0.15
2023-03-03T04:25:37.554Z,0.18
2023-03-03T04:30:47.718Z,0.20
2023-03-03T04:35:52.397Z,0.15
2023-03-03T04:40:54.383Z,0.22
2023-03-03T04:45:58.110Z,0.14
2023-03-03T04:50:59.991Z,0.28
2023-03-03T04:56:02.092Z,0.29
2023-03-03T05:01:04.293Z,0.13
2023-03-03T05:06:08.080Z,0.40
2023-03-03T05:11:09.986Z,0.68
2023-03-03T05:16:11.679Z,0.95
2023-03-03T05:21:13.446Z,0.79
2023-03-03T05:26:15.505Z,0.97
2023-03-03T05:31:17.216Z,1.40
2023-03-03T05:36:19.314Z,1.63
2023-03-03T05:41:21.265Z,1.72
2023-03-03T05:46:23.070Z,1.83
2023-03-03T05:51:25.002Z,1.79
2023-03-03T05:56:26.606Z,1.80
2023-03-03T06:01:28.437Z,1.80
2023-03-03T06:06:30.198Z,1.65
2023-03-03T06:11:32.646Z,1.66
2023-03-03T06:16:35.254Z,1.60
2023-03-03T06:21:37.227Z,1.73
2023-03-03T06:26:44.941Z,1.83
2023-03-03T06:31:46.722Z,1.93
2023-03-03T06:36:48.597Z,1.96
2023-03-03T06:41:50.314Z,2.04
2023-03-03T06:46:52.121Z,2.14
2023-03-03T06:51:54.624Z,1.77
2023-03-03T06:57:16.911Z,1.94
2023-03-03T07:02:19.503Z,2.16
2023-03-03T07:07:24.632Z,2.36
2023-03-03T07:12:31.968Z,2.39
2023-03-03T07:22:54.897Z,2.46
2023-03-03T07:28:08.302Z,2.59
2023-03-03T07:33:26.448Z,2.46
2023-03-03T07:38:46.395Z,2.39
2023-03-03T07:43:48.632Z,2.10
2023-03-03T07:48:53.134Z,2.35
2023-03-03T07:54:14.976Z,2.64
2023-03-03T07:59:30.278Z,2.61
2023-03-03T08:04:45.768Z,2.89
2023-03-03T08:10:29.652Z,3.05
2023-03-03T08:15:37.263Z,2.95
2023-03-03T08:20:46.554Z,2.89
2023-03-03T08:25:49.974Z,3.12
2023-03-03T08:30:54.416Z,3.12
2023-03-03T08:36:08.317Z,3.23
2023-03-03T08:41:10.499Z,3.67
2023-03-03T08:46:12.484Z,3.60
2023-03-03T08:51:14.338Z,3.44
2023-03-03T08:56:16.615Z,3.44
2023-03-03T09:01:19.760Z,3.65
2023-03-03T09:06:24.600Z,3.58
2023-03-03T09:11:34.812Z,3.84
2023-03-03T09:16:46.007Z,3.65
2023-03-03T09:21:48.345Z,3.94
2023-03-03T09:26:51.349Z,4.02
2023-03-03T09:31:59.780Z,3.81
2023-03-03T09:37:28.931Z,3.59
2023-03-03T09:42:58.056Z,3.67
2023-03-03T09:48:25.719Z,4.12
2023-03-03T09:53:53.129Z,4.50
2023-03-03T09:59:16.701Z,4.68
2023-03-03T10:04:57.491Z,4.75
2023-03-03T10:10:29.746Z,4.77
2023-03-03T10:15:50.174Z,4.84
2023-03-03T10:21:09.566Z,4.97
2023-03-03T10:27:09.839Z,4.90
2023-03-03T10:38:33.151Z,4.63
2023-03-03T10:43:55.853Z,5.24
2023-03-03T10:49:25.290Z,6.12
2023-03-03T10:54:54.165Z,5.98
2023-03-03T11:00:15.711Z,6.04
2023-03-03T11:05:26.380Z,6.18
2023-03-03T11:10:42.374Z,6.21
2023-03-03T11:16:07.935Z,6.31
2023-03-03T11:21:18.093Z,6.24
2023-03-03T11:26:23.580Z,7.13
2023-03-03T11:31:31.811Z,6.39
2023-03-03T11:37:01.920Z,6.96
2023-03-03T11:42:10.027Z,6.34
2023-03-03T11:47:30.382Z,7.27
2023-03-03T11:52:49.563Z,7.30
2023-03-03T11:57:58.588Z,7.46
2023-03-03T12:03:29.497Z,7.79
2023-03-03T12:09:05.259Z,10.35
2023-03-03T12:14:17.598Z,8.82
2023-03-03T12:19:25.454Z,9.62
2023-03-03T12:24:45.367Z,10.17
2023-03-03T12:30:05.082Z,9.64
2023-03-03T12:35:10.116Z,9.91
2023-03-03T12:40:20.213Z,11.01
2023-03-03T12:45:53.343Z,11.99
2023-03-03T12:51:40.345Z,11.62
2023-03-03T12:56:49.605Z,11.08
2023-03-03T13:02:06.398Z,10.31
2023-03-03T13:07:16.311Z,11.31
2023-03-03T13:12:24.730Z,11.43
2023-03-03T13:17:38.938Z,10.35
2023-03-03T13:22:59.660Z,9.26
2023-03-03T13:28:17.284Z,8.42
2023-03-03T13:33:35.373Z,8.83
2023-03-03T13:38:47.007Z,9.31
2023-03-03T13:44:33.860Z,9.99
2023-03-03T13:49:55.900Z,9.47
2023-03-03T13:55:21.722Z,8.38
2023-03-03T14:00:37.499Z,7.35
2023-03-03T14:05:40.716Z,8.02
2023-03-03T14:10:47.826Z,8.31
2023-03-03T14:16:11.585Z,8.30
2023-03-03T14:21:26.724Z,9.29
2023-03-03T14:26:28.721Z,8.19
2023-03-03T14:31:40.437Z,8.70
2023-03-03T14:36:44.469Z,8.69
2023-03-03T14:41:46.636Z,7.90
2023-03-03T14:47:06.150Z,8.23
2023-03-03T14:52:17.758Z,8.00
2023-03-03T14:57:37.609Z,8.75
2023-03-03T15:03:03.078Z,8.33
2023-03-03T15:08:05.053Z,8.47
2023-03-03T15:13:13.243Z,8.45
2023-03-03T15:18:15.842Z,8.27
2023-03-03T15:23:55.427Z,7.80
2023-03-03T15:29:07.962Z,7.44
2023-03-03T15:34:44.705Z,8.22
2023-03-03T15:40:16.983Z,8.23
2023-03-03T15:45:27.398Z,8.21
2023-03-03T15:50:45.425Z,7.35
2023-03-03T15:56:27.837Z,7.16
2023-03-03T16:01:33.723Z,6.58
2023-03-03T16:06:57.625Z,6.73
2023-03-03T16:12:31.221Z,6.26
2023-03-03T16:17:56.612Z,6.14
2023-03-03T16:23:19.935Z,5.86
2023-03-03T16:28:31.807Z,5.64
2023-03-03T16:33:44.822Z,5.68
2023-03-03T16:39:04.527Z,5.56
2023-03-03T16:44:40.515Z,5.44
2023-03-03T16:50:04.251Z,5.20
2023-03-03T16:55:15.886Z,5.16
2023-03-03T17:00:29.244Z,4.80
2023-03-03T17:06:16.412Z,4.69
2023-03-03T17:11:37.630Z,4.46
2023-03-03T17:17:09.904Z,4.33
2023-03-03T17:22:18.350Z,4.21
2023-03-03T17:27:44.376Z,4.15
2023-03-03T17:33:12.782Z,4.05
2023-03-03T17:38:33.140Z,3.93
2023-03-03T17:43:51.524Z,3.82
2023-03-03T17:49:18.337Z,3.78
2023-03-03T17:54:48.569Z,3.70
2023-03-03T18:00:19.371Z,3.67
2023-03-03T18:05:49.716Z,3.55
2023-03-03T18:11:15.547Z,3.47
2023-03-03T18:22:16.904Z,3.21
2023-03-03T18:27:28.304Z,3.20
2023-03-03T18:33:06.813Z,3.12
2023-03-03T18:38:23.848Z,3.15
2023-03-03T18:43:45.930Z,3.01
2023-03-03T18:49:12.626Z,2.83
2023-03-03T18:54:17.053Z,2.64
2023-03-03T18:59:36.446Z,2.78
2023-03-03T19:04:43.285Z,2.66
2023-03-03T19:09:53.522Z,2.55
2023-03-03T19:14:58.258Z,2.49
2023-03-03T19:20:05.669Z,2.50
2023-03-03T19:25:10.078Z,2.52
2023-03-03T19:30:29.148Z,2.40
2023-03-03T19:35:42.839Z,2.33
2023-03-03T19:41:22.151Z,2.05
2023-03-03T19:46:42.208Z,1.91
2023-03-03T19:51:52.789Z,1.79
2023-03-03T19:56:58.198Z,1.73
2023-03-03T20:02:23.400Z,1.56
2023-03-03T20:07:49.462Z,1.04
2023-03-03T20:13:06.594Z,0.87
2023-03-03T20:18:34.479Z,1.01
2023-03-03T20:23:54.111Z,0.88
2023-03-03T20:29:43.216Z,0.96
2023-03-03T20:35:23.540Z,1.03
2023-03-03T20:40:43.593Z,1.13
2023-03-03T20:45:53.986Z,1.19
2023-03-03T20:51:12.741Z,1.05
2023-03-03T20:56:39.272Z,0.93
2023-03-03T21:01:53.898Z,0.69
2023-03-03T21:06:56.091Z,0.73
2023-03-03T21:11:59.852Z,0.93
2023-03-03T21:17:24.681Z,1.23
2023-03-03T21:22:26.274Z,1.50
2023-03-03T21:27:30.882Z,1.66
2023-03-03T21:32:39.298Z,1.88
2023-03-03T21:37:50.986Z,1.75
2023-03-03T21:42:57.934Z,1.80
2023-03-03T21:48:02.461Z,1.76
2023-03-03T21:53:04.360Z,1.97
2023-03-03T21:58:05.923Z,2.11
2023-03-03T22:03:07.656Z,2.13
2023-03-03T22:08:09.597Z,2.21
2023-03-03T22:13:11.369Z,2.31
2023-03-03T22:18:13.510Z,2.35
2023-03-03T22:23:16.744Z,2.35
2023-03-03T22:28:18.479Z,2.43
2023-03-03T22:33:20.297Z,2.26
2023-03-03T22:38:22.054Z,2.35
2023-03-03T22:43:24.017Z,2.39
2023-03-03T22:48:27.540Z,2.45
2023-03-03T22:53:29.417Z,2.45
2023-03-03T22:58:31.128Z,2.51
2023-03-03T23:03:33.295Z,2.53
2023-03-03T23:08:35.169Z,2.67
2023-03-03T23:13:36.716Z,2.67
2023-03-03T23:18:38.587Z,2.63
2023-03-03T23:23:40.623Z,2.56
2023-03-03T23:28:42.303Z,2.56
2023-03-03T23:33:43.918Z,2.71
2023-03-03T23:38:45.913Z,2.49
2023-03-03T23:43:47.692Z,2.73
2023-03-03T23:48:49.465Z,2.79
2023-03-03T23:53:51.355Z,2.85
2023-03-03T23:58:53.118Z,2.77
